createdAt,value
2019-04-20T00:00:10.961Z,63.9719
2019-04-20T00:01:19.967Z,57.0230
2019-04-20T00:02:25.455Z,60.8804
2019-04-20T00:03:30.922Z,61.3535
2019-04-20T00:04:37.393Z,59.9832
2019-04-20T00:05:41.359Z,58.3825
2019-04-20T00:06:49.421Z,59.5956
2019-04-20T00:07:52.279Z,57.1862
2019-04-20T00:09:03.524Z,55.4894
2019-04-20T00:10:10.926Z,55.2911
2019-04-20T00:11:17.869Z,56.3165
2019-04-20T00:12:33.452Z,59.4583
2019-04-20T00:13:39.281Z,62.3590
2019-04-20T00:14:37.407Z,62.8504
2019-04-20T00:15:43.029Z,61.9394
2019-04-20T00:16:48.236Z,61.2116
2019-04-20T00:17:56.239Z,61.8280
2019-04-20T00:19:03.132Z,62.2965
2019-04-20T00:20:15.514Z,63.3936
2019-04-20T00:21:16.455Z,59.4858
2019-04-20T00:22:26.115Z,62.0111
2019-04-20T00:23:34.795Z,62.0111
2019-04-20T00:24:38.616Z,65.0553
2019-04-20T00:25:53.149Z,67.9713
2019-04-20T00:27:22.070Z,68.9601
2019-04-20T00:28:16.321Z,64.5808
2019-04-20T00:29:25.118Z,63.0503
2019-04-20T00:30:36.622Z,63.1006
2019-04-20T00:31:42.090Z,63.9261
2019-04-20T00:32:46.637Z,67.0985
2019-04-20T00:33:50.659Z,66.5568
2019-04-20T00:34:49.536Z,61.6541
2019-04-20T00:35:54.861Z,61.0178
2019-04-20T00:36:58.136Z,64.1901
2019-04-20T00:38:01.314Z,62.2171
2019-04-20T00:39:05.986Z,64.4373
2019-04-20T00:40:11.187Z,64.7944
2019-04-20T00:41:17.068Z,64.7318
2019-04-20T00:42:30.309Z,61.4481
2019-04-20T00:43:32.879Z,64.3793
2019-04-20T00:44:39.479Z,64.8585
2019-04-20T00:45:51.552Z,62.8168
2019-04-20T00:47:04.299Z,60.4227
2019-04-20T00:48:06.787Z,60.0748
2019-04-20T00:49:29.277Z,59.3942
2019-04-20T00:50:34.198Z,58.7030
2019-04-20T00:51:39.555Z,57.6623
2019-04-20T00:52:50.879Z,58.3963
2019-04-20T00:53:46.770Z,59.1058
2019-04-20T00:54:49.848Z,59.7452
2019-04-20T00:55:52.965Z,58.9090
2019-04-20T00:57:07.802Z,56.1074
2019-04-20T00:58:14.369Z,56.7926
2019-04-20T00:59:25.402Z,59.7498
2019-04-20T01:00:37.174Z,60.8820
2019-04-20T01:01:48.963Z,60.8255
2019-04-20T01:02:47.313Z,57.8698
2019-04-20T01:04:06.713Z,56.3546
2019-04-20T01:05:12.616Z,56.2249
2019-04-20T01:06:19.296Z,56.8338
2019-04-20T01:07:23.277Z,60.2487
2019-04-20T01:08:15.313Z,58.8067
2019-04-20T01:09:18.330Z,61.0315
2019-04-20T01:10:21.625Z,57.9919
2019-04-20T01:11:33.161Z,61.9562
2019-04-20T01:12:35.561Z,60.4654
2019-04-20T01:13:48.719Z,57.1740
2019-04-20T01:14:55.802Z,63.5187
2019-04-20T01:16:05.213Z,59.8383
2019-04-20T01:17:11.675Z,57.1588
2019-04-20T01:18:15.241Z,58.5779
2019-04-20T01:19:19.291Z,55.0896
2019-04-20T01:20:26.371Z,61.6220
2019-04-20T01:21:33.453Z,61.6312
2019-04-20T01:22:45.493Z,62.3926
2019-04-20T01:23:52.536Z,59.2187
2019-04-20T01:24:53.666Z,61.9257
2019-04-20T01:26:04.028Z,65.5421
2019-04-20T01:27:16.947Z,64.3977
2019-04-20T01:28:32.392Z,67.5425
2019-04-20T01:29:34.950Z,63.9979
2019-04-20T01:30:37.723Z,61.2711
2019-04-20T01:31:55.713Z,58.3825
2019-04-20T01:32:59.952Z,56.6567
2019-04-20T01:34:04.279Z,63.2761
2019-04-20T01:35:18.115Z,62.1820
2019-04-20T01:36:34.978Z,64.4160
2019-04-20T01:37:33.784Z,66.4210
2019-04-20T01:38:44.714Z,69.9214
2019-04-20T01:39:43.197Z,67.5639
2019-04-20T01:40:44.375Z,66.8513
2019-04-20T01:41:47.553Z,65.1163
2019-04-20T01:42:51.185Z,59.7269
2019-04-20T01:43:54.459Z,59.1699
2019-04-20T01:44:58.692Z,57.7737
2019-04-20T01:46:09.324Z,64.3961
2019-04-20T01:47:12.098Z,64.3977
2019-04-20T01:48:23.949Z,65.8442
2019-04-20T01:49:27.750Z,64.2420
2019-04-20T01:50:35.338Z,66.8177
2019-04-20T01:51:52.516Z,66.1402
2019-04-20T01:53:01.589Z,67.2526
2019-04-20T01:54:11.765Z,67.4357
2019-04-20T01:55:24.775Z,68.2414
2019-04-20T01:56:27.308Z,71.0628
2019-04-20T01:57:27.192Z,65.3849
2019-04-20T01:58:47.078Z,64.8127
2019-04-20T01:59:49.225Z,65.8488
2019-04-20T02:00:48.124Z,68.8457
2019-04-20T02:01:59.225Z,69.2897
2019-04-20T02:03:03.673Z,63.5218
2019-04-20T02:04:17.124Z,62.9694
2019-04-20T02:05:24.926Z,64.1169
2019-04-20T02:06:28.312Z,66.1646
2019-04-20T02:07:40.022Z,70.7820
2019-04-20T02:08:42.059Z,70.1274
2019-04-20T02:09:53.565Z,70.8049
2019-04-20T02:10:57.646Z,71.2551
2019-04-20T02:12:08.404Z,66.4668
2019-04-20T02:13:11.087Z,64.0070
2019-04-20T02:14:24.286Z,65.6596
2019-04-20T02:15:31.011Z,70.5730
2019-04-20T02:16:37.242Z,66.5843
2019-04-20T02:17:44.141Z,62.8733
2019-04-20T02:19:08.250Z,60.0900
2019-04-20T02:20:10.722Z,62.3606
2019-04-20T02:21:19.932Z,65.0462
2019-04-20T02:22:29.862Z,64.9012
2019-04-20T02:23:33.075Z,64.3977
2019-04-20T02:24:27.832Z,64.3290
2019-04-20T02:25:31.253Z,64.4739
2019-04-20T02:26:34.765Z,66.6209
2019-04-20T02:27:43.293Z,57.4899
2019-04-20T02:29:14.544Z,62.7314
2019-04-20T02:30:25.694Z,64.1993
2019-04-20T02:31:58.939Z,63.7461
2019-04-20T02:32:40.181Z,66.0075
2019-04-20T02:33:51.849Z,68.3833
2019-04-20T02:35:03.419Z,68.5802
2019-04-20T02:37:19.386Z,67.9210
2019-04-20T02:38:22.574Z,69.5247
2019-04-20T02:39:37.598Z,65.9571
2019-04-20T02:41:57.868Z,73.4203
2019-04-20T02:43:02.065Z,70.2571
2019-04-20T02:45:18.762Z,70.8019
2019-04-20T02:46:22.507Z,72.5444
2019-04-20T02:47:37.534Z,71.9326
2019-04-20T02:48:31.799Z,70.0679
2019-04-20T02:50:50.137Z,71.9280
2019-04-20T02:52:17.143Z,75.7427
2019-04-20T02:53:15.661Z,65.4582
2019-04-20T02:55:23.517Z,69.9962
2019-04-20T02:57:47.254Z,74.1802
2019-04-20T02:58:59.612Z,72.6604
2019-04-20T03:00:52.286Z,74.4045
2019-04-20T03:01:52.144Z,78.3322
2019-04-20T03:02:59.983Z,77.1145
2019-04-20T03:03:59.762Z,75.6375
2019-04-20T03:05:18.915Z,73.8582
2019-04-20T03:06:22.991Z,69.5659
2019-04-20T03:07:34.306Z,70.9834
2019-04-20T03:08:52.709Z,73.3883
2019-04-20T03:09:58.426Z,74.3069
2019-04-20T03:11:08.941Z,78.1094
2019-04-20T03:12:18.732Z,70.1015
2019-04-20T03:13:18.792Z,73.9467
2019-04-20T03:14:21.807Z,69.1890
2019-04-20T03:15:37.932Z,68.3711
2019-04-20T03:16:38.540Z,67.8340
2019-04-20T03:17:51.216Z,71.3924
2019-04-20T03:18:53.531Z,70.8324
2019-04-20T03:20:00.698Z,70.6371
2019-04-20T03:21:21.428Z,74.2702
2019-04-20T03:22:29.206Z,69.4789
2019-04-20T03:23:35.316Z,64.9561
2019-04-20T03:24:46.995Z,69.6025
2019-04-20T03:25:55.657Z,67.4006
2019-04-20T03:26:54.679Z,65.7191
2019-04-20T03:28:05.205Z,67.0069
2019-04-20T03:29:05.361Z,66.9001
2019-04-20T03:30:58.746Z,68.7221
2019-04-20T03:31:54.038Z,61.8692
2019-04-20T03:33:06.964Z,63.8514
2019-04-20T03:34:23.561Z,64.4190
2019-04-20T03:35:10.042Z,62.1027
2019-04-20T03:36:16.097Z,66.5583
2019-04-20T03:37:17.114Z,65.1530
2019-04-20T03:38:20.197Z,62.0722
2019-04-20T03:39:23.287Z,63.3265
2019-04-20T03:40:29.915Z,65.5100
2019-04-20T03:41:32.303Z,62.7527
2019-04-20T03:42:31.198Z,64.2328
2019-04-20T03:43:34.961Z,62.8717
2019-04-20T03:44:39.457Z,69.4331
2019-04-20T03:45:54.308Z,65.3574
2019-04-20T03:46:59.673Z,70.7225
2019-04-20T03:48:12.558Z,69.2073
2019-04-20T03:49:40.896Z,68.2963
2019-04-20T03:50:42.473Z,66.2516
2019-04-20T03:51:51.853Z,62.3957
2019-04-20T03:52:57.782Z,61.7319
2019-04-20T03:53:58.849Z,61.1963
2019-04-20T03:55:12.843Z,59.6689
2019-04-20T03:56:26.406Z,59.8795
2019-04-20T03:57:26.521Z,58.3917
2019-04-20T03:58:35.911Z,65.5726
2019-04-20T03:59:47.556Z,60.4089
2019-04-20T04:00:45.763Z,64.4099
2019-04-20T04:02:17.094Z,58.6145
2019-04-20T04:03:12.843Z,65.7694
2019-04-20T04:04:16.761Z,62.2553
2019-04-20T04:05:19.224Z,62.4109
2019-04-20T04:06:23.443Z,65.8106
2019-04-20T04:07:29.550Z,61.1566
2019-04-20T04:08:35.313Z,57.5113
2019-04-20T04:09:47.118Z,60.3723
2019-04-20T04:11:03.237Z,60.3723
2019-04-20T04:12:07.718Z,61.9898
2019-04-20T04:13:01.093Z,55.5352
2019-04-20T04:14:05.018Z,61.1475
2019-04-20T04:15:08.525Z,57.1176
2019-04-20T04:16:14.668Z,55.9380
2019-04-20T04:17:26.953Z,57.8225
2019-04-20T04:18:34.686Z,57.3846
2019-04-20T04:19:38.776Z,61.1841
2019-04-20T04:20:49.776Z,52.5231
2019-04-20T04:22:04.122Z,60.5524
2019-04-20T04:23:15.066Z,61.0834
2019-04-20T04:24:22.907Z,60.3967
2019-04-20T04:25:28.783Z,62.8962
2019-04-20T04:26:39.106Z,59.2020
2019-04-20T04:27:49.004Z,65.0935
2019-04-20T04:28:53.755Z,56.1517
2019-04-20T04:30:07.726Z,56.1654
2019-04-20T04:31:14.672Z,59.9115
2019-04-20T04:32:33.262Z,66.0456
2019-04-20T04:34:40.513Z,67.0253
2019-04-20T04:35:44.373Z,64.6632
2019-04-20T04:36:59.415Z,64.9699
2019-04-20T04:38:02.690Z,63.5142
2019-04-20T04:39:19.272Z,63.4119
2019-04-20T04:40:26.523Z,62.8397
2019-04-20T04:41:26.847Z,64.8280
2019-04-20T04:42:42.580Z,69.5048
2019-04-20T04:43:44.116Z,66.7964
2019-04-20T04:44:44.709Z,62.0218
2019-04-20T04:45:42.676Z,61.5946
2019-04-20T04:46:53.760Z,61.9577
2019-04-20T04:47:53.673Z,65.1026
2019-04-20T04:49:06.806Z,64.0391
2019-04-20T04:50:12.669Z,69.2363
2019-04-20T04:51:20.022Z,61.6281
2019-04-20T04:52:29.427Z,59.7635
2019-04-20T04:53:43.016Z,62.3270
2019-04-20T04:54:45.385Z,60.6027
2019-04-20T04:55:54.134Z,64.6021
2019-04-20T04:56:52.588Z,62.6673
2019-04-20T04:57:55.825Z,63.1800
2019-04-20T04:58:58.284Z,71.1208
2019-04-20T05:00:01.544Z,69.4606
2019-04-20T05:01:08.348Z,66.5660
2019-04-20T05:02:12.201Z,64.1031
2019-04-20T05:03:35.377Z,63.7018
2019-04-20T05:04:49.604Z,63.2441
2019-04-20T05:05:49.927Z,64.5762
2019-04-20T05:06:53.580Z,64.7944
2019-04-20T05:07:59.458Z,62.9633
2019-04-20T05:09:00.236Z,61.9608
2019-04-20T05:10:03.797Z,63.0549
2019-04-20T05:11:06.908Z,60.6241
2019-04-20T05:12:17.208Z,63.6973
2019-04-20T05:13:18.190Z,61.0681
2019-04-20T05:14:27.081Z,58.0667
2019-04-20T05:15:42.454Z,60.7385
2019-04-20T05:16:51.273Z,61.3886
2019-04-20T05:18:06.005Z,67.7485
2019-04-20T05:19:13.508Z,67.4372
2019-04-20T05:20:17.143Z,66.5202
2019-04-20T05:21:25.504Z,68.7739
2019-04-20T05:22:38.974Z,69.5567
2019-04-20T05:23:35.117Z,72.9122
2019-04-20T05:24:53.742Z,73.9864
2019-04-20T05:26:02.612Z,74.6838
2019-04-20T05:27:17.694Z,76.9726
2019-04-20T05:28:14.021Z,78.2177
2019-04-20T05:29:13.422Z,74.7936
2019-04-20T05:30:12.185Z,75.3292
2019-04-20T05:31:16.712Z,74.6731
2019-04-20T05:32:32.584Z,76.1532
2019-04-20T05:33:49.774Z,77.9080
2019-04-20T05:34:58.214Z,75.0286
2019-04-20T05:36:09.966Z,74.1833
2019-04-20T05:37:20.910Z,72.2988
2019-04-20T05:38:27.508Z,58.9807
2019-04-20T05:39:36.852Z,72.0745
2019-04-20T05:40:44.379Z,68.5771
2019-04-20T05:41:41.995Z,75.3674
2019-04-20T05:42:55.657Z,74.0749
2019-04-20T05:43:56.119Z,77.5860
2019-04-20T05:45:08.699Z,79.3866
2019-04-20T05:46:19.511Z,79.2355
2019-04-20T05:47:22.712Z,75.7641
2019-04-20T05:48:32.019Z,74.8470
2019-04-20T05:49:34.883Z,73.5790
2019-04-20T05:50:48.223Z,68.7465
2019-04-20T05:51:54.487Z,70.2754
2019-04-20T05:53:09.935Z,68.3330
2019-04-20T05:54:17.794Z,68.7038
2019-04-20T05:55:22.417Z,68.2887
2019-04-20T05:56:35.806Z,60.9216
2019-04-20T05:57:40.111Z,67.8950
2019-04-20T05:58:45.082Z,66.5309
2019-04-20T06:00:03.577Z,63.5142
2019-04-20T06:01:08.863Z,63.2013
2019-04-20T06:02:09.704Z,65.6504
2019-04-20T06:03:18.453Z,63.3036
2019-04-20T06:04:42.725Z,61.1749
2019-04-20T06:05:36.979Z,61.1734
2019-04-20T06:06:44.651Z,61.7243
2019-04-20T06:07:48.861Z,63.0915
2019-04-20T06:09:05.515Z,64.3015
2019-04-20T06:10:00.233Z,63.4775
2019-04-20T06:11:17.930Z,62.9511
2019-04-20T06:12:19.949Z,62.2400
2019-04-20T06:13:23.988Z,64.2771
2019-04-20T06:14:28.591Z,63.1327
2019-04-20T06:15:46.678Z,64.9744
2019-04-20T06:17:00.038Z,63.7003
2019-04-20T06:17:58.379Z,61.8662
2019-04-20T06:19:24.213Z,66.8589
2019-04-20T06:20:19.421Z,65.0980
2019-04-20T06:21:35.386Z,66.9276
2019-04-20T06:22:36.483Z,66.6270
2019-04-20T06:23:47.703Z,64.9912
2019-04-20T06:24:53.063Z,64.8692
2019-04-20T06:26:14.908Z,64.7730
2019-04-20T06:27:03.265Z,63.1327
2019-04-20T06:28:12.814Z,58.1628
2019-04-20T06:29:20.507Z,64.4389
2019-04-20T06:30:26.259Z,63.4348
2019-04-20T06:31:37.033Z,64.5609
2019-04-20T06:32:44.202Z,64.9683
2019-04-20T06:34:11.370Z,62.2446
2019-04-20T06:35:04.449Z,65.3345
2019-04-20T06:37:23.452Z,59.5361
2019-04-20T06:38:49.728Z,60.2853
2019-04-20T06:39:54.381Z,56.1517
2019-04-20T06:41:02.314Z,60.9415
2019-04-20T06:42:07.101Z,49.5918
2019-04-20T06:43:04.102Z,56.4141
2019-04-20T06:44:17.710Z,50.1366
2019-04-20T06:45:28.118Z,58.4192
2019-04-20T06:46:31.667Z,58.1109
2019-04-20T06:47:39.717Z,54.2443
2019-04-20T06:48:50.018Z,53.7591
2019-04-20T06:49:45.382Z,60.6744
2019-04-20T06:52:15.503Z,53.7850
2019-04-20T06:53:31.061Z,56.0021
2019-04-20T06:54:13.371Z,59.2294
2019-04-20T06:55:38.594Z,58.5840
2019-04-20T06:56:42.554Z,52.7886
2019-04-20T06:58:04.285Z,57.2229
2019-04-20T06:58:57.726Z,51.2856
2019-04-20T07:00:08.779Z,49.9916
2019-04-20T07:01:13.700Z,48.5039
2019-04-20T07:03:42.190Z,50.2739
2019-04-20T07:05:45.333Z,49.7169
2019-04-20T07:06:59.146Z,51.7754
2019-04-20T07:08:16.669Z,55.5291
2019-04-20T07:09:13.890Z,49.6605
2019-04-20T07:10:18.277Z,49.3278
2019-04-20T07:11:25.009Z,48.3009
2019-04-20T07:12:31.160Z,49.0120
2019-04-20T07:13:30.898Z,46.2593
2019-04-20T07:15:49.648Z,46.6896
2019-04-20T07:17:10.727Z,47.3274
2019-04-20T07:18:15.682Z,48.4794
2019-04-20T07:19:18.957Z,44.9134
2019-04-20T07:20:35.092Z,46.5980
2019-04-20T07:21:55.378Z,51.4275
2019-04-20T07:22:47.892Z,41.5320
2019-04-20T07:23:56.074Z,44.3595
2019-04-20T07:25:02.378Z,44.3610
2019-04-20T07:26:21.128Z,46.7689
2019-04-20T07:27:19.659Z,43.2853
2019-04-20T07:28:32.894Z,45.1759
2019-04-20T07:29:51.833Z,45.0370
2019-04-20T07:30:42.095Z,48.9006
2019-04-20T07:31:47.465Z,46.1830
2019-04-20T07:32:57.958Z,49.8619
2019-04-20T07:34:03.729Z,44.7211
2019-04-20T07:35:14.152Z,44.5808
2019-04-20T07:36:28.993Z,48.1636
2019-04-20T07:38:40.131Z,44.4846
2019-04-20T07:39:47.774Z,47.1977
2019-04-20T07:40:56.008Z,42.4414
2019-04-20T07:42:08.492Z,44.3183
2019-04-20T07:43:07.732Z,44.5167
2019-04-20T07:44:29.598Z,43.4867
2019-04-20T07:45:30.763Z,42.7344
2019-04-20T07:46:47.501Z,43.9796
2019-04-20T07:47:46.663Z,44.0528
2019-04-20T07:48:54.295Z,43.5142
2019-04-20T07:49:56.494Z,45.4124
2019-04-20T07:50:57.996Z,44.6632
2019-04-20T07:51:55.583Z,42.6978
2019-04-20T07:53:12.309Z,46.3020
2019-04-20T07:54:40.179Z,42.8809
2019-04-20T07:57:48.810Z,43.9445
2019-04-20T07:58:47.955Z,43.8239
2019-04-20T08:00:06.396Z,46.4424
2019-04-20T08:01:23.161Z,43.1739
2019-04-20T08:02:33.351Z,47.4952
2019-04-20T08:03:39.361Z,45.5497
2019-04-20T08:04:39.034Z,45.0233
2019-04-20T08:05:39.458Z,43.9384
2019-04-20T08:06:43.151Z,46.7643
2019-04-20T08:07:53.644Z,47.0527
2019-04-20T08:09:10.075Z,45.0324
2019-04-20T08:10:09.037Z,44.2725
2019-04-20T08:11:32.069Z,42.8000
2019-04-20T08:12:43.825Z,46.1357
2019-04-20T08:13:51.317Z,44.8631
2019-04-20T08:15:04.738Z,49.8207
2019-04-20T08:16:06.734Z,42.9221
2019-04-20T08:17:26.807Z,43.0747
2019-04-20T08:18:27.164Z,45.4459
2019-04-20T08:19:27.298Z,46.1219
2019-04-20T08:20:43.610Z,44.1459
2019-04-20T08:21:47.525Z,44.0177
2019-04-20T08:22:53.194Z,44.3091
2019-04-20T08:24:02.506Z,43.2288
2019-04-20T08:25:06.996Z,44.5335
2019-04-20T08:26:06.664Z,44.3885
2019-04-20T08:27:09.126Z,44.6540
2019-04-20T08:28:21.411Z,42.4338
2019-04-20T08:29:33.641Z,41.2711
2019-04-20T08:30:47.075Z,44.9470
2019-04-20T08:31:56.288Z,45.6428
2019-04-20T08:33:05.236Z,47.5456
2019-04-20T08:34:24.723Z,43.9628
2019-04-20T08:35:28.572Z,43.7705
2019-04-20T08:36:34.590Z,41.9883
2019-04-20T08:37:50.553Z,40.8347
2019-04-20T08:40:01.466Z,42.9587
2019-04-20T08:41:02.592Z,43.5508
2019-04-20T08:42:13.079Z,44.2084
2019-04-20T08:43:37.916Z,44.1672
2019-04-20T08:44:48.367Z,43.0869
2019-04-20T08:45:45.734Z,45.2750
2019-04-20T08:46:56.649Z,42.5391
2019-04-20T08:48:09.747Z,41.2207
2019-04-20T08:49:08.368Z,38.3444
2019-04-20T08:50:29.619Z,39.3576
2019-04-20T08:51:14.616Z,40.2075
2019-04-20T08:52:58.664Z,44.4282
2019-04-20T08:53:42.080Z,42.3774
2019-04-20T08:54:41.436Z,42.1088
2019-04-20T08:55:49.140Z,38.4588
2019-04-20T08:56:49.880Z,38.5199
2019-04-20T08:57:51.504Z,37.9294
2019-04-20T08:58:55.088Z,40.3418
2019-04-20T09:00:00.647Z,41.3382
2019-04-20T09:01:08.637Z,37.8729
2019-04-20T09:02:15.739Z,37.7127
2019-04-20T09:03:25.434Z,37.2320
2019-04-20T09:04:40.283Z,40.8804
2019-04-20T09:05:51.258Z,44.0894
2019-04-20T09:06:59.739Z,39.2248
2019-04-20T09:08:02.522Z,40.2823
2019-04-20T09:09:29.029Z,38.9029
2019-04-20T09:10:28.188Z,40.8484
2019-04-20T09:11:30.935Z,37.9095
2019-04-20T09:12:42.159Z,37.2366
2019-04-20T09:13:40.500Z,36.3531
2019-04-20T09:14:40.272Z,36.6735
2019-04-20T09:15:44.749Z,38.4726
2019-04-20T09:16:54.525Z,36.4706
2019-04-20T09:18:00.676Z,38.5382
2019-04-20T09:19:07.612Z,37.9156
2019-04-20T09:20:16.448Z,36.4752
2019-04-20T09:21:29.618Z,36.9665
2019-04-20T09:22:34.287Z,36.4111
2019-04-20T09:23:46.886Z,36.8414
2019-04-20T09:25:12.305Z,35.2865
2019-04-20T09:26:12.840Z,36.6857
2019-04-20T09:27:12.949Z,38.0667
2019-04-20T09:28:19.789Z,41.5488
2019-04-20T09:29:31.862Z,34.7860
2019-04-20T09:30:37.297Z,38.2040
2019-04-20T09:31:50.272Z,36.3394
2019-04-20T09:32:59.531Z,34.0444
2019-04-20T09:34:07.439Z,34.7417
2019-04-20T09:35:17.320Z,35.6832
2019-04-20T09:36:17.910Z,34.2382
2019-04-20T09:37:30.988Z,34.7875
2019-04-20T09:38:34.848Z,37.9461
2019-04-20T09:39:38.354Z,39.0906
2019-04-20T09:40:57.245Z,34.6136
2019-04-20T09:41:59.850Z,33.6980
2019-04-20T09:42:55.180Z,36.1959
2019-04-20T09:44:00.379Z,34.8089
2019-04-20T09:45:04.922Z,35.3033
2019-04-20T09:46:10.179Z,34.1131
2019-04-20T09:47:14.146Z,32.7504
2019-04-20T09:48:25.286Z,32.6177
2019-04-20T09:49:40.179Z,34.5663
2019-04-20T09:50:55.394Z,37.3281
2019-04-20T09:51:59.815Z,33.6477
2019-04-20T09:53:04.059Z,33.8613
2019-04-20T09:54:17.021Z,33.3394
2019-04-20T09:55:18.170Z,34.9249
2019-04-20T09:56:29.698Z,35.8129
2019-04-20T09:57:37.934Z,34.6365
2019-04-20T09:58:50.907Z,37.4609
2019-04-20T09:59:57.646Z,34.7051
2019-04-20T10:01:03.333Z,34.9523
2019-04-20T10:02:07.045Z,34.4198
2019-04-20T10:03:06.723Z,34.2092
2019-04-20T10:04:09.186Z,33.2753
2019-04-20T10:05:13.485Z,33.1151
2019-04-20T10:06:18.861Z,36.8322
2019-04-20T10:07:26.222Z,37.7264
2019-04-20T10:08:40.367Z,31.7021
2019-04-20T10:09:44.545Z,29.7093
2019-04-20T10:10:49.428Z,30.9178
2019-04-20T10:11:55.297Z,33.7972
2019-04-20T10:12:58.810Z,32.6345
2019-04-20T10:14:02.030Z,32.0775
2019-04-20T10:15:12.442Z,32.2820
2019-04-20T10:16:13.550Z,32.8588
2019-04-20T10:17:16.203Z,31.5358
2019-04-20T10:18:19.732Z,31.5541
2019-04-20T10:19:26.660Z,31.9661
2019-04-20T10:20:34.547Z,29.8283
2019-04-20T10:21:39.193Z,36.0632
2019-04-20T10:22:42.583Z,30.4891
2019-04-20T10:23:45.212Z,28.9998
2019-04-20T10:24:50.323Z,30.9545
2019-04-20T10:25:54.364Z,32.7260
2019-04-20T10:26:58.649Z,29.6223
2019-04-20T10:28:01.392Z,34.2382
2019-04-20T10:29:07.882Z,33.9712
2019-04-20T10:30:12.465Z,34.4945
2019-04-20T10:31:15.178Z,32.1218
2019-04-20T10:32:19.604Z,31.9905
2019-04-20T10:33:22.190Z,31.1711
2019-04-20T10:34:26.325Z,31.9310
2019-04-20T10:35:29.772Z,32.5536
2019-04-20T10:36:33.337Z,31.7250
2019-04-20T10:37:37.641Z,30.7851
2019-04-20T10:38:40.245Z,27.2831
2019-04-20T10:39:44.663Z,31.1162
2019-04-20T10:40:57.203Z,27.8279
2019-04-20T10:41:57.647Z,27.2328
2019-04-20T10:43:03.172Z,28.8228
2019-04-20T10:44:09.076Z,31.9265
2019-04-20T10:45:12.872Z,30.0496
2019-04-20T10:46:17.318Z,28.6717
2019-04-20T10:47:21.138Z,28.7678
2019-04-20T10:48:24.165Z,29.4911
2019-04-20T10:49:27.214Z,29.0822
2019-04-20T10:50:32.928Z,31.2062
2019-04-20T10:51:36.208Z,27.7363
2019-04-20T10:52:38.207Z,26.8208
2019-04-20T10:53:42.393Z,31.5373
2019-04-20T10:54:45.196Z,29.3523
2019-04-20T10:55:49.448Z,26.9276
2019-04-20T10:56:52.809Z,28.7709
2019-04-20T10:57:55.602Z,29.3492
2019-04-20T10:58:58.401Z,29.0105
2019-04-20T11:00:01.731Z,29.3156
2019-04-20T11:01:04.308Z,29.3706
2019-04-20T11:02:07.917Z,28.3925
2019-04-20T11:03:11.198Z,28.3558
2019-04-20T11:04:14.697Z,33.4905
2019-04-20T11:05:17.192Z,32.5765
2019-04-20T11:06:20.618Z,27.3350
2019-04-20T11:07:23.198Z,31.2535
2019-04-20T11:08:26.588Z,26.7018
2019-04-20T11:09:29.202Z,28.7129
2019-04-20T11:10:49.417Z,30.9865
2019-04-20T11:11:40.785Z,30.0725
2019-04-20T11:12:42.727Z,28.2963
2019-04-20T11:13:45.626Z,34.2687
2019-04-20T11:14:52.223Z,27.2663
2019-04-20T11:15:57.231Z,31.2398
2019-04-20T11:17:02.592Z,28.2628
2019-04-20T11:18:07.209Z,26.4225
2019-04-20T11:19:11.515Z,28.2536
2019-04-20T11:20:15.166Z,30.2098
2019-04-20T11:21:19.536Z,30.1503
2019-04-20T11:22:22.315Z,27.7958
2019-04-20T11:23:26.508Z,29.3797
2019-04-20T11:24:30.268Z,28.7343
2019-04-20T11:25:34.214Z,29.5232
2019-04-20T11:26:41.442Z,36.1242
2019-04-20T11:27:45.972Z,28.7709
2019-04-20T11:28:50.380Z,29.8756
2019-04-20T11:29:54.087Z,30.3273
2019-04-20T11:30:58.418Z,30.0633
2019-04-20T11:32:03.017Z,28.6015
2019-04-20T11:33:06.969Z,27.2160
2019-04-20T11:34:14.979Z,28.0797
2019-04-20T11:35:27.851Z,29.5140
2019-04-20T11:36:28.228Z,28.4199
2019-04-20T11:37:33.117Z,26.7491
2019-04-20T11:38:36.181Z,28.0308
2019-04-20T11:39:39.092Z,28.6152
2019-04-20T11:40:42.292Z,28.0583
2019-04-20T11:41:45.728Z,29.5232
2019-04-20T11:42:48.203Z,28.8640
2019-04-20T11:43:51.535Z,27.8843
2019-04-20T11:44:55.249Z,29.6376
2019-04-20T11:45:58.471Z,27.0649
2019-04-20T11:47:02.891Z,27.2374
2019-04-20T11:48:07.514Z,27.8874
2019-04-20T11:49:10.211Z,29.5552
2019-04-20T11:50:13.670Z,26.5919
2019-04-20T11:51:16.969Z,30.4524
2019-04-20T11:52:21.424Z,30.4387
2019-04-20T11:53:26.935Z,30.4326
2019-04-20T11:54:32.401Z,26.1341
2019-04-20T11:55:36.260Z,24.6571
2019-04-20T11:56:43.542Z,26.1494
2019-04-20T11:57:49.138Z,24.7883
2019-04-20T11:58:53.129Z,25.5406
2019-04-20T11:59:57.170Z,27.4723
2019-04-20T12:01:08.508Z,26.0700
2019-04-20T12:02:10.774Z,23.9689
2019-04-20T12:03:24.866Z,25.5451
2019-04-20T12:04:34.084Z,27.8477
2019-04-20T12:05:38.143Z,25.4017
2019-04-20T12:06:41.059Z,27.1504
2019-04-20T12:07:44.815Z,24.1215
2019-04-20T12:08:48.918Z,25.7038
2019-04-20T12:09:53.415Z,26.5644
2019-04-20T12:10:59.502Z,26.2440
2019-04-20T12:12:16.800Z,26.0792
2019-04-20T12:13:14.410Z,25.4887
2019-04-20T12:14:18.847Z,26.7628
2019-04-20T12:15:22.466Z,27.7775
2019-04-20T12:16:25.691Z,27.1199
2019-04-20T12:17:29.343Z,26.6377
2019-04-20T12:18:32.191Z,25.8824
2019-04-20T12:19:36.692Z,26.5660
2019-04-20T12:20:40.866Z,27.7546
2019-04-20T12:21:45.501Z,27.2236
2019-04-20T12:22:48.407Z,25.9693
2019-04-20T12:23:51.926Z,26.5461
2019-04-20T12:24:56.225Z,26.1799
2019-04-20T12:25:59.838Z,26.3859
2019-04-20T12:27:04.775Z,25.8595
2019-04-20T12:28:09.446Z,24.2847
2019-04-20T12:29:14.048Z,26.6758
2019-04-20T12:30:17.563Z,27.4846
2019-04-20T12:31:23.757Z,28.4962
2019-04-20T12:32:36.437Z,28.6854
2019-04-20T12:33:36.816Z,25.8778
2019-04-20T12:34:41.259Z,26.8711
2019-04-20T12:35:44.506Z,26.8620
2019-04-20T12:36:48.893Z,26.7308
2019-04-20T12:37:52.211Z,26.3874
2019-04-20T12:38:55.182Z,25.3803
2019-04-20T12:39:58.190Z,27.9393
2019-04-20T12:41:04.239Z,26.5415
2019-04-20T12:42:10.075Z,27.6356
2019-04-20T12:43:15.153Z,27.4952
2019-04-20T12:44:19.405Z,28.0400
2019-04-20T12:45:22.188Z,29.1829
2019-04-20T12:46:26.397Z,32.8878
2019-04-20T12:47:29.865Z,27.9667
2019-04-20T12:48:33.629Z,31.3390
2019-04-20T12:49:36.205Z,27.4815
2019-04-20T12:50:39.592Z,31.4305
2019-04-20T12:51:50.747Z,27.9438
2019-04-20T12:52:50.764Z,27.0451
2019-04-20T12:53:53.183Z,28.7953
2019-04-20T12:54:58.333Z,26.7842
2019-04-20T12:56:04.297Z,26.8986
2019-04-20T12:57:07.192Z,27.0130
2019-04-20T12:58:10.405Z,29.8939
2019-04-20T12:59:13.766Z,33.2082
2019-04-20T13:00:17.391Z,30.2907
2019-04-20T13:01:21.095Z,28.2185
2019-04-20T13:02:25.261Z,29.5216
2019-04-20T13:03:28.172Z,28.1209
2019-04-20T13:04:31.168Z,29.3706
2019-04-20T13:05:34.180Z,31.1345
2019-04-20T13:06:38.912Z,28.7266
2019-04-20T13:07:47.303Z,28.4688
2019-04-20T13:08:53.785Z,30.3243
2019-04-20T13:09:59.138Z,30.7393
2019-04-20T13:11:04.482Z,28.8716
2019-04-20T13:12:10.582Z,29.6971
2019-04-20T13:13:16.357Z,26.4271
2019-04-20T13:14:20.071Z,28.4749
2019-04-20T13:15:24.473Z,30.9911
2019-04-20T13:16:28.153Z,27.9118
2019-04-20T13:17:32.322Z,27.2389
2019-04-20T13:18:35.203Z,28.3864
2019-04-20T13:19:39.132Z,28.9448
2019-04-20T13:20:43.921Z,28.2551
2019-04-20T13:21:47.299Z,28.8029
2019-04-20T13:22:50.905Z,28.7587
2019-04-20T13:23:55.327Z,28.4977
2019-04-20T13:24:59.239Z,28.8441
2019-04-20T13:26:02.688Z,30.1762
2019-04-20T13:27:09.040Z,28.0613
2019-04-20T13:28:12.874Z,27.4388
2019-04-20T13:29:17.161Z,26.9444
2019-04-20T13:30:20.272Z,30.8492
2019-04-20T13:31:25.861Z,28.6152
2019-04-20T13:32:31.879Z,29.8299
2019-04-20T13:33:36.914Z,24.8112
2019-04-20T13:34:42.330Z,26.1616
2019-04-20T13:35:46.258Z,26.8040
2019-04-20T13:36:50.503Z,28.2261
2019-04-20T13:37:54.143Z,29.3660
2019-04-20T13:38:59.446Z,25.3986
2019-04-20T13:40:03.012Z,26.8223
2019-04-20T13:41:06.328Z,25.5528
2019-04-20T13:42:16.055Z,27.3381
2019-04-20T13:43:17.635Z,30.0542
2019-04-20T13:44:20.185Z,30.8461
2019-04-20T13:45:24.566Z,26.5202